Time,TemperatureF,DewpointF,PressureIn,WindDirection,WindDirectionDegrees,WindSpeedMPH,WindSpeedGustMPH,Humidity,HourlyPrecipIn,Conditions,Clouds,dailyrainin,SolarRadiationWatts/m^2,SoftwareType,DateUTC
2013-02-09 00:21:00,41.0,35.0,-100.00,East,80,6.0,15.0,78,0.00,,,0.06,0.000000,,2013-02-09 08:21:00,
2013-02-09 00:31:00,41.0,35.0,-100.00,East,80,6.0,15.0,78,0.00,,,0.06,0.000000,,2013-02-09 08:31:00,
2013-02-09 00:41:00,41.0,35.0,-100.00,East,80,6.0,15.0,78,0.00,,,0.06,0.000000,,2013-02-09 08:41:00,
2013-02-09 00:52:00,41.0,35.0,-100.00,East,80,6.0,15.0,78,0.00,,,0.06,0.000000,,2013-02-09 08:52:00,
2013-02-09 01:21:00,40.0,32.0,-100.00,West,276,7.0,12.0,72,0.00,,,0.06,0.000000,,2013-02-09 09:21:00,
2013-02-09 01:31:00,40.0,32.0,-100.00,West,276,7.0,12.0,72,0.00,,,0.06,0.000000,,2013-02-09 09:31:00,
2013-02-09 01:41:00,40.0,32.0,-100.00,West,276,7.0,12.0,72,0.00,,,0.06,0.000000,,2013-02-09 09:41:00,
2013-02-09 01:51:00,40.0,32.0,-100.00,West,276,7.0,12.0,72,0.00,,,0.06,0.000000,,2013-02-09 09:51:00,
2013-02-09 02:21:00,41.0,32.0,-100.00,WNW,293,7.0,16.0,70,0.00,,,0.06,0.000000,,2013-02-09 10:21:00,
2013-02-09 02:31:00,41.0,32.0,-100.00,WNW,293,7.0,16.0,70,0.00,,,0.06,0.000000,,2013-02-09 10:31:00,
2013-02-09 02:41:00,41.0,32.0,-100.00,WNW,293,7.0,16.0,70,0.00,,,0.06,0.000000,,2013-02-09 10:41:00,
2013-02-09 02:51:00,41.0,32.0,-100.00,WNW,293,7.0,16.0,70,0.00,,,0.06,0.000000,,2013-02-09 10:51:00,
2013-02-09 03:21:00,41.0,33.0,-100.00,ESE,102,7.0,16.0,74,0.00,,,0.06,0.000000,,2013-02-09 11:21:00,
2013-02-09 03:31:00,41.0,33.0,-100.00,ESE,102,7.0,16.0,74,0.00,,,0.06,0.000000,,2013-02-09 11:31:00,
2013-02-09 03:41:00,41.0,33.0,-100.00,ESE,102,7.0,16.0,74,0.00,,,0.06,0.000000,,2013-02-09 11:41:00,
2013-02-09 03:52:00,41.0,33.0,-100.00,ESE,102,7.0,16.0,74,0.00,,,0.06,0.000000,,2013-02-09 11:52:00,
2013-02-09 04:21:00,40.0,31.0,-100.00,NW,304,5.0,13.0,69,0.00,,,0.06,0.000000,,2013-02-09 12:21:00,
2013-02-09 04:32:00,40.0,31.0,-100.00,NW,304,5.0,13.0,69,0.00,,,0.06,0.000000,,2013-02-09 12:32:00,
2013-02-09 04:42:00,40.0,31.0,-100.00,NW,304,5.0,13.0,69,0.00,,,0.06,0.000000,,2013-02-09 12:42:00,
2013-02-09 04:52:00,40.0,31.0,-100.00,NW,304,5.0,13.0,69,0.00,,,0.06,0.000000,,2013-02-09 12:52:00,
2013-02-09 05:21:00,41.0,33.0,-100.00,ENE,65,6.0,13.0,72,0.00,,,0.06,0.000000,,2013-02-09 13:21:00,
2013-02-09 05:32:00,41.0,33.0,-100.00,ENE,65,6.0,13.0,72,0.00,,,0.06,0.000000,,2013-02-09 13:32:00,
2013-02-09 05:42:00,41.0,33.0,-100.00,ENE,65,6.0,13.0,72,0.00,,,0.06,0.000000,,2013-02-09 13:42:00,
2013-02-09 05:51:00,41.0,33.0,-100.00,ENE,65,6.0,13.0,72,0.00,,,0.06,0.000000,,2013-02-09 13:51:00,
2013-02-09 06:21:00,40.0,33.0,-100.00,WNW,299,4.0,13.0,76,0.00,,,0.06,0.000000,,2013-02-09 14:21:00,
2013-02-09 06:31:00,40.0,33.0,-100.00,WNW,299,4.0,13.0,76,0.00,,,0.06,0.000000,,2013-02-09 14:31:00,
2013-02-09 06:41:00,40.0,33.0,-100.00,WNW,299,4.0,13.0,76,0.00,,,0.06,0.000000,,2013-02-09 14:41:00,
2013-02-09 06:52:00,40.0,33.0,-100.00,WNW,299,4.0,13.0,76,0.00,,,0.06,0.000000,,2013-02-09 14:52:00,
2013-02-09 07:21:00,40.0,32.0,-100.00,SSW,212,4.0,13.0,73,0.00,,,-99.99,1.000000,,2013-02-09 15:21:00,
2013-02-09 07:31:00,40.0,32.0,-100.00,SSW,212,4.0,13.0,73,0.00,,,-99.99,1.000000,,2013-02-09 15:31:00,
2013-02-09 07:41:00,40.0,32.0,-100.00,SSW,212,4.0,13.0,73,0.00,,,-99.99,1.000000,,2013-02-09 15:41:00,
2013-02-09 07:51:00,40.0,32.0,-100.00,SSW,212,4.0,13.0,73,0.00,,,-99.99,1.000000,,2013-02-09 15:51:00,
2013-02-09 08:22:00,46.0,34.0,-100.00,NE,48,6.0,10.0,63,0.00,,,0.06,81.000000,,2013-02-09 16:22:00,
2013-02-09 09:21:00,50.0,32.0,-100.00,NW,312,4.0,10.0,49,-99.99,,,0.06,283.000000,,2013-02-09 17:21:00,
2013-02-09 09:41:00,50.0,32.0,-100.00,NW,312,4.0,10.0,49,-99.99,,,0.06,283.000000,,2013-02-09 17:41:00,
2013-02-09 09:52:00,50.0,32.0,-100.00,NW,312,4.0,10.0,49,-99.99,,,0.06,283.000000,,2013-02-09 17:52:00,
2013-02-09 10:23:00,53.0,34.0,-100.00,South,180,5.0,9.0,49,0.00,,,0.06,488.000000,,2013-02-09 18:23:00,
2013-02-09 10:31:00,53.0,34.0,-100.00,South,180,5.0,9.0,49,0.00,,,0.06,488.000000,,2013-02-09 18:31:00,
2013-02-09 10:41:00,53.0,34.0,-100.00,South,180,5.0,9.0,49,0.00,,,0.06,488.000000,,2013-02-09 18:41:00,
2013-02-09 10:51:00,53.0,34.0,-100.00,South,180,5.0,9.0,49,0.00,,,0.06,488.000000,,2013-02-09 18:51:00,
2013-02-09 11:22:00,60.0,40.0,-100.00,ENE,75,11.0,11.0,48,0.00,,,0.06,604.000000,,2013-02-09 19:22:00,
2013-02-09 12:21:00,62.0,38.0,-100.00,East,87,11.0,17.0,41,-99.99,,,0.06,670.000000,,2013-02-09 20:21:00,
2013-02-09 13:21:00,62.0,36.0,-100.00,SW,219,11.0,19.0,38,-99.99,,,0.06,680.000000,,2013-02-09 21:21:00,
2013-02-09 13:31:00,62.0,36.0,-100.00,SW,219,11.0,19.0,38,-99.99,,,0.06,680.000000,,2013-02-09 21:31:00,
2013-02-09 15:21:00,61.0,34.0,-100.00,NE,56,11.0,22.0,36,-99.99,,,0.06,516.000000,,2013-02-09 23:21:00,
2013-02-09 15:31:00,61.0,34.0,-100.00,NE,56,11.0,22.0,36,-99.99,,,0.06,516.000000,,2013-02-09 23:31:00,
2013-02-09 16:21:00,60.0,33.0,-100.00,SE,131,10.0,22.0,36,-99.99,,,0.06,367.000000,,2013-02-10 00:21:00,
2013-02-09 17:21:00,53.0,31.0,-100.00,NW,315,12.0,18.0,43,-99.99,,,0.06,149.000000,,2013-02-10 01:21:00,
2013-02-09 17:31:00,53.0,31.0,-100.00,NW,315,12.0,18.0,43,-99.99,,,0.06,149.000000,,2013-02-10 01:31:00,
2013-02-09 17:41:00,53.0,31.0,-100.00,NW,315,12.0,18.0,43,-99.99,,,0.06,149.000000,,2013-02-10 01:41:00,
2013-02-09 17:51:00,53.0,31.0,-100.00,NW,315,12.0,18.0,43,-99.99,,,0.06,149.000000,,2013-02-10 01:51:00,
2013-02-09 18:22:00,46.0,31.0,-100.00,NNW,337,12.0,21.0,56,0.00,,,0.06,11.000000,,2013-02-10 02:22:00,
2013-02-09 18:31:00,46.0,31.0,-100.00,NNW,337,12.0,21.0,56,0.00,,,0.06,11.000000,,2013-02-10 02:31:00,
2013-02-09 18:41:00,46.0,31.0,-100.00,NNW,337,12.0,21.0,56,0.00,,,0.06,11.000000,,2013-02-10 02:41:00,
2013-02-09 18:52:00,46.0,31.0,-100.00,NNW,337,12.0,21.0,56,0.00,,,0.06,11.000000,,2013-02-10 02:52:00,
2013-02-09 19:21:00,45.0,37.0,-100.00,NNW,343,11.0,17.0,73,0.00,,,0.01,0.000000,,2013-02-10 03:21:00,
2013-02-09 19:32:00,45.0,37.0,-100.00,NNW,343,11.0,17.0,73,0.00,,,0.01,0.000000,,2013-02-10 03:32:00,
2013-02-09 19:41:00,45.0,37.0,-100.00,NNW,343,11.0,17.0,73,0.00,,,0.01,0.000000,,2013-02-10 03:41:00,
2013-02-09 19:51:00,45.0,37.0,-100.00,NNW,343,11.0,17.0,73,0.00,,,0.01,0.000000,,2013-02-10 03:51:00,
2013-02-09 20:21:00,44.0,39.0,-100.00,SW,233,5.0,15.0,81,0.00,,,0.01,0.000000,,2013-02-10 04:21:00,
2013-02-09 20:32:00,44.0,39.0,-100.00,SW,233,5.0,15.0,81,0.00,,,0.01,0.000000,,2013-02-10 04:32:00,
2013-02-09 20:41:00,44.0,39.0,-100.00,SW,233,5.0,15.0,81,0.00,,,0.01,0.000000,,2013-02-10 04:41:00,
2013-02-09 20:51:00,44.0,39.0,-100.00,SW,233,5.0,15.0,81,0.00,,,0.01,0.000000,,2013-02-10 04:51:00,
2013-02-09 21:22:00,43.0,38.0,-100.00,SSE,157,9.0,13.0,82,0.00,,,0.00,0.000000,,2013-02-10 05:22:00,
2013-02-09 21:31:00,43.0,38.0,-100.00,SSE,157,9.0,13.0,82,0.00,,,0.00,0.000000,,2013-02-10 05:31:00,
2013-02-09 21:41:00,43.0,38.0,-100.00,SSE,157,9.0,13.0,82,0.00,,,0.00,0.000000,,2013-02-10 05:41:00,
2013-02-09 21:52:00,43.0,38.0,-100.00,SSE,157,9.0,13.0,82,0.00,,,0.00,0.000000,,2013-02-10 05:52:00,
2013-02-09 22:21:00,42.0,39.0,-100.00,ESE,107,6.0,13.0,88,0.00,,,0.00,0.000000,,2013-02-10 06:21:00,
2013-02-09 22:32:00,42.0,39.0,-100.00,ESE,107,6.0,13.0,88,0.00,,,0.00,0.000000,,2013-02-10 06:32:00,
2013-02-09 22:42:00,42.0,39.0,-100.00,ESE,107,6.0,13.0,88,0.00,,,0.00,0.000000,,2013-02-10 06:42:00,
2013-02-09 22:51:00,42.0,39.0,-100.00,ESE,107,6.0,13.0,88,0.00,,,0.00,0.000000,,2013-02-10 06:51:00,
2013-02-09 23:21:00,41.0,38.0,-100.00,SW,231,6.0,14.0,89,0.00,,,0.00,0.000000,,2013-02-10 07:21:00,
2013-02-09 23:31:00,41.0,38.0,-100.00,SW,231,6.0,14.0,89,0.00,,,0.00,0.000000,,2013-02-10 07:31:00,
2013-02-09 23:41:00,41.0,38.0,-100.00,SW,231,6.0,14.0,89,0.00,,,0.00,0.000000,,2013-02-10 07:41:00,
2013-02-09 23:51:00,41.0,38.0,-100.00,SW,231,6.0,14.0,89,0.00,,,0.00,0.000000,,2013-02-10 07:51:00,